sensor_id;sensor_type;location;lat;lon;timestamp;P1;durP1;ratioP1;P2;durP2;ratioP2
74241;SDS011;62599;49.146;10.426;2024-03-22T00:01:40;6.90;;;3.43;;
74241;SDS011;62599;49.146;10.426;2024-03-22T00:04:06;5.73;;;3.10;;
74241;SDS011;62599;49.146;10.426;2024-03-22T00:06:31;7.67;;;4.37;;
74241;SDS011;62599;49.146;10.426;2024-03-22T00:08:56;5.07;;;2.77;;
74241;SDS011;62599;49.146;10.426;2024-03-22T00:11:21;5.93;;;2.87;;
74241;SDS011;62599;49.146;10.426;2024-03-22T00:13:46;9.33;;;4.53;;
74241;SDS011;62599;49.146;10.426;2024-03-22T00:16:12;7.40;;;2.73;;
74241;SDS011;62599;49.146;10.426;2024-03-22T00:18:37;7.77;;;3.17;;
74241;SDS011;62599;49.146;10.426;2024-03-22T00:21:02;5.63;;;3.37;;
74241;SDS011;62599;49.146;10.426;2024-03-22T00:23:27;7.03;;;3.35;;
74241;SDS011;62599;49.146;10.426;2024-03-22T00:25:54;6.45;;;3.08;;
74241;SDS011;62599;49.146;10.426;2024-03-22T00:28:19;6.90;;;2.70;;
74241;SDS011;62599;49.146;10.426;2024-03-22T00:30:44;5.43;;;3.60;;
74241;SDS011;62599;49.146;10.426;2024-03-22T00:33:10;9.23;;;4.77;;
74241;SDS011;62599;49.146;10.426;2024-03-22T00:35:35;16.97;;;6.97;;
74241;SDS011;62599;49.146;10.426;2024-03-22T00:38:00;15.73;;;6.13;;
74241;SDS011;62599;49.146;10.426;2024-03-22T00:40:25;11.57;;;4.10;;
74241;SDS011;62599;49.146;10.426;2024-03-22T00:42:51;4.00;;;2.27;;
74241;SDS011;62599;49.146;10.426;2024-03-22T00:45:16;17.10;;;6.70;;
74241;SDS011;62599;49.146;10.426;2024-03-22T00:47:41;13.67;;;6.87;;
74241;SDS011;62599;49.146;10.426;2024-03-22T00:50:06;17.23;;;7.73;;
74241;SDS011;62599;49.146;10.426;2024-03-22T00:52:32;15.43;;;7.10;;
74241;SDS011;62599;49.146;10.426;2024-03-22T00:54:57;7.63;;;4.20;;
74241;SDS011;62599;49.146;10.426;2024-03-22T00:57:22;9.83;;;4.30;;
74241;SDS011;62599;49.146;10.426;2024-03-22T00:59:47;7.10;;;4.00;;
74241;SDS011;62599;49.146;10.426;2024-03-22T01:02:13;7.67;;;3.37;;
74241;SDS011;62599;49.146;10.426;2024-03-22T01:04:38;8.60;;;3.50;;
74241;SDS011;62599;49.146;10.426;2024-03-22T01:07:03;10.60;;;3.97;;
74241;SDS011;62599;49.146;10.426;2024-03-22T01:09:28;4.00;;;2.37;;
74241;SDS011;62599;49.146;10.426;2024-03-22T01:11:53;9.93;;;4.60;;
74241;SDS011;62599;49.146;10.426;2024-03-22T01:14:18;16.57;;;5.47;;
74241;SDS011;62599;49.146;10.426;2024-03-22T01:16:44;8.53;;;2.93;;
74241;SDS011;62599;49.146;10.426;2024-03-22T01:19:09;10.03;;;4.30;;
74241;SDS011;62599;49.146;10.426;2024-03-22T01:21:34;10.80;;;3.83;;
74241;SDS011;62599;49.146;10.426;2024-03-22T01:24:00;11.95;;;4.25;;
74241;SDS011;62599;49.146;10.426;2024-03-22T01:26:26;6.73;;;3.90;;
74241;SDS011;62599;49.146;10.426;2024-03-22T01:28:51;6.27;;;3.27;;
74241;SDS011;62599;49.146;10.426;2024-03-22T01:31:16;10.50;;;4.03;;
74241;SDS011;62599;49.146;10.426;2024-03-22T01:33:41;7.47;;;3.30;;
74241;SDS011;62599;49.146;10.426;2024-03-22T01:36:06;5.57;;;2.67;;
74241;SDS011;62599;49.146;10.426;2024-03-22T01:38:32;7.90;;;4.00;;
74241;SDS011;62599;49.146;10.426;2024-03-22T01:40:57;5.93;;;3.47;;
74241;SDS011;62599;49.146;10.426;2024-03-22T01:43:22;9.23;;;4.17;;
74241;SDS011;62599;49.146;10.426;2024-03-22T01:45:47;8.73;;;3.53;;
74241;SDS011;62599;49.146;10.426;2024-03-22T01:48:13;4.67;;;3.17;;
74241;SDS011;62599;49.146;10.426;2024-03-22T01:50:38;13.70;;;6.45;;
74241;SDS011;62599;49.146;10.426;2024-03-22T01:53:03;6.63;;;4.00;;
74241;SDS011;62599;49.146;10.426;2024-03-22T01:55:29;8.73;;;4.55;;
74241;SDS011;62599;49.146;10.426;2024-03-22T01:57:54;6.30;;;4.23;;
74241;SDS011;62599;49.146;10.426;2024-03-22T02:00:20;5.68;;;3.00;;
74241;SDS011;62599;49.146;10.426;2024-03-22T02:02:46;6.82;;;3.42;;
74241;SDS011;62599;49.146;10.426;2024-03-22T02:05:15;7.45;;;4.35;;
74241;SDS011;62599;49.146;10.426;2024-03-22T02:07:41;6.35;;;3.70;;
74241;SDS011;62599;49.146;10.426;2024-03-22T02:10:14;10.63;;;3.95;;
74241;SDS011;62599;49.146;10.426;2024-03-22T02:12:40;9.80;;;4.15;;
74241;SDS011;62599;49.146;10.426;2024-03-22T02:15:05;6.28;;;3.58;;
74241;SDS011;62599;49.146;10.426;2024-03-22T02:17:32;12.45;;;5.25;;
74241;SDS011;62599;49.146;10.426;2024-03-22T02:19:57;9.57;;;3.73;;
74241;SDS011;62599;49.146;10.426;2024-03-22T02:22:22;6.60;;;3.50;;
74241;SDS011;62599;49.146;10.426;2024-03-22T02:24:47;6.83;;;2.83;;
74241;SDS011;62599;49.146;10.426;2024-03-22T02:27:13;7.13;;;3.23;;
74241;SDS011;62599;49.146;10.426;2024-03-22T02:29:38;5.23;;;2.43;;
74241;SDS011;62599;49.146;10.426;2024-03-22T02:32:03;5.73;;;3.20;;
74241;SDS011;62599;49.146;10.426;2024-03-22T02:34:28;7.60;;;4.10;;
74241;SDS011;62599;49.146;10.426;2024-03-22T02:36:54;5.73;;;2.80;;
74241;SDS011;62599;49.146;10.426;2024-03-22T02:39:19;6.20;;;3.13;;
74241;SDS011;62599;49.146;10.426;2024-03-22T02:41:44;5.20;;;2.07;;
74241;SDS011;62599;49.146;10.426;2024-03-22T02:44:09;5.40;;;3.77;;
74241;SDS011;62599;49.146;10.426;2024-03-22T02:46:34;19.73;;;4.97;;
74241;SDS011;62599;49.146;10.426;2024-03-22T02:49:00;9.03;;;3.83;;
74241;SDS011;62599;49.146;10.426;2024-03-22T02:51:25;7.88;;;3.92;;
74241;SDS011;62599;49.146;10.426;2024-03-22T02:53:50;14.00;;;5.10;;
74241;SDS011;62599;49.146;10.426;2024-03-22T02:56:16;9.93;;;3.40;;
74241;SDS011;62599;49.146;10.426;2024-03-22T02:58:41;5.37;;;3.00;;
74241;SDS011;62599;49.146;10.426;2024-03-22T03:01:06;7.50;;;3.40;;
74241;SDS011;62599;49.146;10.426;2024-03-22T03:03:31;17.27;;;6.87;;
74241;SDS011;62599;49.146;10.426;2024-03-22T03:05:57;25.23;;;5.43;;
74241;SDS011;62599;49.146;10.426;2024-03-22T03:08:22;27.07;;;10.30;;
74241;SDS011;62599;49.146;10.426;2024-03-22T03:10:47;19.17;;;9.43;;
74241;SDS011;62599;49.146;10.426;2024-03-22T03:13:12;66.97;;;23.33;;
74241;SDS011;62599;49.146;10.426;2024-03-22T03:15:37;23.10;;;10.67;;
74241;SDS011;62599;49.146;10.426;2024-03-22T03:18:03;16.27;;;8.57;;
74241;SDS011;62599;49.146;10.426;2024-03-22T03:20:28;25.20;;;9.60;;
74241;SDS011;62599;49.146;10.426;2024-03-22T03:22:54;52.57;;;18.10;;
74241;SDS011;62599;49.146;10.426;2024-03-22T03:25:20;21.17;;;7.80;;
74241;SDS011;62599;49.146;10.426;2024-03-22T03:27:45;17.10;;;6.70;;
74241;SDS011;62599;49.146;10.426;2024-03-22T03:30:10;14.30;;;7.43;;
74241;SDS011;62599;49.146;10.426;2024-03-22T03:32:36;21.57;;;9.27;;
74241;SDS011;62599;49.146;10.426;2024-03-22T03:35:01;9.70;;;5.87;;
74241;SDS011;62599;49.146;10.426;2024-03-22T03:37:26;7.70;;;4.33;;
74241;SDS011;62599;49.146;10.426;2024-03-22T03:39:51;7.10;;;4.17;;
74241;SDS011;62599;49.146;10.426;2024-03-22T03:42:17;7.77;;;4.43;;
74241;SDS011;62599;49.146;10.426;2024-03-22T03:44:42;10.13;;;5.07;;
74241;SDS011;62599;49.146;10.426;2024-03-22T03:47:07;6.17;;;3.57;;
74241;SDS011;62599;49.146;10.426;2024-03-22T03:49:32;7.25;;;4.25;;
74241;SDS011;62599;49.146;10.426;2024-03-22T03:51:58;11.57;;;4.50;;
74241;SDS011;62599;49.146;10.426;2024-03-22T03:54:23;9.03;;;3.47;;
74241;SDS011;62599;49.146;10.426;2024-03-22T03:56:48;7.40;;;3.60;;
74241;SDS011;62599;49.146;10.426;2024-03-22T03:59:13;7.07;;;3.87;;
74241;SDS011;62599;49.146;10.426;2024-03-22T04:01:38;8.63;;;4.10;;
74241;SDS011;62599;49.146;10.426;2024-03-22T04:04:04;13.13;;;5.00;;
74241;SDS011;62599;49.146;10.426;2024-03-22T04:06:29;8.43;;;4.27;;
74241;SDS011;62599;49.146;10.426;2024-03-22T04:08:54;7.35;;;3.10;;
74241;SDS011;62599;49.146;10.426;2024-03-22T04:11:20;9.67;;;3.77;;
74241;SDS011;62599;49.146;10.426;2024-03-22T04:13:45;7.90;;;3.00;;
74241;SDS011;62599;49.146;10.426;2024-03-22T04:16:10;12.67;;;4.70;;
74241;SDS011;62599;49.146;10.426;2024-03-22T04:18:38;7.13;;;4.20;;
74241;SDS011;62599;49.146;10.426;2024-03-22T04:21:03;11.15;;;5.35;;
74241;SDS011;62599;49.146;10.426;2024-03-22T04:23:29;8.77;;;4.13;;
74241;SDS011;62599;49.146;10.426;2024-03-22T04:26:00;10.80;;;4.68;;
74241;SDS011;62599;49.146;10.426;2024-03-22T04:28:26;9.00;;;3.72;;
74241;SDS011;62599;49.146;10.426;2024-03-22T04:31:04;10.70;;;3.65;;
74241;SDS011;62599;49.146;10.426;2024-03-22T04:33:30;5.90;;;3.53;;
74241;SDS011;62599;49.146;10.426;2024-03-22T04:35:56;4.20;;;2.65;;
74241;SDS011;62599;49.146;10.426;2024-03-22T04:38:24;8.38;;;4.32;;
74241;SDS011;62599;49.146;10.426;2024-03-22T04:40:49;9.85;;;4.45;;
74241;SDS011;62599;49.146;10.426;2024-03-22T04:43:15;7.57;;;4.33;;
74241;SDS011;62599;49.146;10.426;2024-03-22T04:45:44;11.18;;;4.32;;
74241;SDS011;62599;49.146;10.426;2024-03-22T04:48:12;10.25;;;5.15;;
74241;SDS011;62599;49.146;10.426;2024-03-22T04:50:38;13.48;;;4.88;;
74241;SDS011;62599;49.146;10.426;2024-03-22T04:53:03;11.57;;;4.40;;
74241;SDS011;62599;49.146;10.426;2024-03-22T04:55:28;8.60;;;4.00;;
74241;SDS011;62599;49.146;10.426;2024-03-22T04:57:53;6.33;;;3.90;;
74241;SDS011;62599;49.146;10.426;2024-03-22T05:00:19;10.40;;;4.03;;
74241;SDS011;62599;49.146;10.426;2024-03-22T05:02:44;11.88;;;3.75;;
74241;SDS011;62599;49.146;10.426;2024-03-22T05:05:09;7.77;;;4.00;;
74241;SDS011;62599;49.146;10.426;2024-03-22T05:07:35;6.67;;;4.13;;
74241;SDS011;62599;49.146;10.426;2024-03-22T05:10:00;9.73;;;4.90;;
74241;SDS011;62599;49.146;10.426;2024-03-22T05:12:25;8.33;;;4.97;;
74241;SDS011;62599;49.146;10.426;2024-03-22T05:14:50;9.87;;;3.90;;
74241;SDS011;62599;49.146;10.426;2024-03-22T05:17:16;7.75;;;4.97;;
74241;SDS011;62599;49.146;10.426;2024-03-22T05:19:41;10.13;;;4.93;;
74241;SDS011;62599;49.146;10.426;2024-03-22T05:22:06;5.03;;;2.90;;
74241;SDS011;62599;49.146;10.426;2024-03-22T05:24:31;11.67;;;4.80;;
74241;SDS011;62599;49.146;10.426;2024-03-22T05:26:57;9.80;;;4.33;;
74241;SDS011;62599;49.146;10.426;2024-03-22T05:29:23;6.70;;;3.20;;
74241;SDS011;62599;49.146;10.426;2024-03-22T05:31:48;8.67;;;4.47;;
74241;SDS011;62599;49.146;10.426;2024-03-22T05:34:14;7.82;;;2.72;;
74241;SDS011;62599;49.146;10.426;2024-03-22T05:36:40;6.40;;;3.95;;
74241;SDS011;62599;49.146;10.426;2024-03-22T05:39:05;8.67;;;3.80;;
74241;SDS011;62599;49.146;10.426;2024-03-22T05:41:30;10.73;;;4.63;;
74241;SDS011;62599;49.146;10.426;2024-03-22T05:43:55;7.22;;;4.05;;
74241;SDS011;62599;49.146;10.426;2024-03-22T05:46:21;6.93;;;4.53;;
74241;SDS011;62599;49.146;10.426;2024-03-22T05:48:46;10.00;;;3.97;;
74241;SDS011;62599;49.146;10.426;2024-03-22T05:51:13;9.00;;;4.82;;
74241;SDS011;62599;49.146;10.426;2024-03-22T05:53:38;10.20;;;4.30;;
74241;SDS011;62599;49.146;10.426;2024-03-22T05:56:04;10.20;;;4.87;;
74241;SDS011;62599;49.146;10.426;2024-03-22T05:58:29;9.35;;;4.00;;
74241;SDS011;62599;49.146;10.426;2024-03-22T06:00:55;9.95;;;4.63;;
74241;SDS011;62599;49.146;10.426;2024-03-22T06:03:20;9.15;;;4.85;;
74241;SDS011;62599;49.146;10.426;2024-03-22T06:05:46;10.43;;;4.10;;
74241;SDS011;62599;49.146;10.426;2024-03-22T06:08:11;17.10;;;5.60;;
74241;SDS011;62599;49.146;10.426;2024-03-22T06:10:36;10.10;;;5.47;;
74241;SDS011;62599;49.146;10.426;2024-03-22T06:13:01;13.37;;;5.13;;
74241;SDS011;62599;49.146;10.426;2024-03-22T06:15:28;12.38;;;5.68;;
74241;SDS011;62599;49.146;10.426;2024-03-22T06:17:53;9.60;;;4.90;;
74241;SDS011;62599;49.146;10.426;2024-03-22T06:20:18;7.97;;;4.33;;
74241;SDS011;62599;49.146;10.426;2024-03-22T06:22:44;11.00;;;5.83;;
74241;SDS011;62599;49.146;10.426;2024-03-22T06:25:09;8.63;;;4.60;;
74241;SDS011;62599;49.146;10.426;2024-03-22T06:27:34;9.37;;;4.40;;
74241;SDS011;62599;49.146;10.426;2024-03-22T06:29:59;9.07;;;4.70;;
74241;SDS011;62599;49.146;10.426;2024-03-22T06:32:24;7.93;;;4.30;;
74241;SDS011;62599;49.146;10.426;2024-03-22T06:34:50;13.30;;;4.67;;
74241;SDS011;62599;49.146;10.426;2024-03-22T06:37:15;12.47;;;5.63;;
74241;SDS011;62599;49.146;10.426;2024-03-22T06:39:40;13.40;;;5.97;;
74241;SDS011;62599;49.146;10.426;2024-03-22T06:42:05;9.47;;;4.83;;
74241;SDS011;62599;49.146;10.426;2024-03-22T06:44:30;12.43;;;6.20;;
74241;SDS011;62599;49.146;10.426;2024-03-22T06:46:56;10.57;;;4.88;;
74241;SDS011;62599;49.146;10.426;2024-03-22T06:49:22;12.60;;;5.80;;
74241;SDS011;62599;49.146;10.426;2024-03-22T06:51:47;9.67;;;5.00;;
74241;SDS011;62599;49.146;10.426;2024-03-22T06:54:12;15.03;;;6.37;;
74241;SDS011;62599;49.146;10.426;2024-03-22T06:56:37;14.13;;;5.37;;
74241;SDS011;62599;49.146;10.426;2024-03-22T06:59:02;13.87;;;6.53;;
74241;SDS011;62599;49.146;10.426;2024-03-22T07:01:28;15.90;;;6.57;;
74241;SDS011;62599;49.146;10.426;2024-03-22T07:03:53;14.77;;;7.00;;
74241;SDS011;62599;49.146;10.426;2024-03-22T07:06:18;13.60;;;6.97;;
74241;SDS011;62599;49.146;10.426;2024-03-22T07:08:43;14.43;;;6.67;;
74241;SDS011;62599;49.146;10.426;2024-03-22T07:11:09;11.90;;;5.10;;
74241;SDS011;62599;49.146;10.426;2024-03-22T07:13:34;11.77;;;5.13;;
74241;SDS011;62599;49.146;10.426;2024-03-22T07:15:59;12.65;;;6.72;;
74241;SDS011;62599;49.146;10.426;2024-03-22T07:18:25;12.65;;;6.20;;
74241;SDS011;62599;49.146;10.426;2024-03-22T07:20:50;14.37;;;6.00;;
74241;SDS011;62599;49.146;10.426;2024-03-22T07:23:15;12.73;;;5.40;;
74241;SDS011;62599;49.146;10.426;2024-03-22T07:25:40;12.27;;;5.37;;
74241;SDS011;62599;49.146;10.426;2024-03-22T07:28:11;9.40;;;5.63;;
74241;SDS011;62599;49.146;10.426;2024-03-22T07:30:36;12.77;;;5.45;;
74241;SDS011;62599;49.146;10.426;2024-03-22T07:33:02;13.82;;;6.47;;
74241;SDS011;62599;49.146;10.426;2024-03-22T07:35:27;9.93;;;5.53;;
74241;SDS011;62599;49.146;10.426;2024-03-22T07:37:52;13.53;;;6.23;;
74241;SDS011;62599;49.146;10.426;2024-03-22T07:40:18;10.93;;;5.05;;
74241;SDS011;62599;49.146;10.426;2024-03-22T07:42:43;11.57;;;5.47;;
74241;SDS011;62599;49.146;10.426;2024-03-22T07:45:08;15.30;;;6.17;;
74241;SDS011;62599;49.146;10.426;2024-03-22T07:47:33;13.03;;;5.50;;
74241;SDS011;62599;49.146;10.426;2024-03-22T07:49:59;17.38;;;7.10;;
74241;SDS011;62599;49.146;10.426;2024-03-22T07:52:24;11.43;;;5.30;;
74241;SDS011;62599;49.146;10.426;2024-03-22T07:54:49;23.30;;;7.70;;
74241;SDS011;62599;49.146;10.426;2024-03-22T07:57:14;10.73;;;5.43;;
74241;SDS011;62599;49.146;10.426;2024-03-22T07:59:40;8.53;;;4.47;;
74241;SDS011;62599;49.146;10.426;2024-03-22T08:02:05;10.27;;;5.27;;
74241;SDS011;62599;49.146;10.426;2024-03-22T08:04:30;12.67;;;6.13;;
74241;SDS011;62599;49.146;10.426;2024-03-22T08:06:55;10.03;;;5.97;;
74241;SDS011;62599;49.146;10.426;2024-03-22T08:09:21;16.93;;;8.47;;
74241;SDS011;62599;49.146;10.426;2024-03-22T08:11:47;12.30;;;6.32;;
74241;SDS011;62599;49.146;10.426;2024-03-22T08:14:13;13.88;;;7.18;;
74241;SDS011;62599;49.146;10.426;2024-03-22T08:16:38;18.83;;;7.13;;
74241;SDS011;62599;49.146;10.426;2024-03-22T08:19:03;13.87;;;6.27;;
74241;SDS011;62599;49.146;10.426;2024-03-22T08:21:28;20.77;;;7.80;;
74241;SDS011;62599;49.146;10.426;2024-03-22T08:23:53;12.77;;;5.93;;
74241;SDS011;62599;49.146;10.426;2024-03-22T08:26:19;8.57;;;5.13;;
74241;SDS011;62599;49.146;10.426;2024-03-22T08:28:47;10.73;;;4.90;;
74241;SDS011;62599;49.146;10.426;2024-03-22T08:31:12;9.75;;;5.43;;
74241;SDS011;62599;49.146;10.426;2024-03-22T08:33:38;12.75;;;5.60;;
74241;SDS011;62599;49.146;10.426;2024-03-22T08:36:03;11.17;;;4.90;;
74241;SDS011;62599;49.146;10.426;2024-03-22T08:38:28;11.73;;;4.97;;
74241;SDS011;62599;49.146;10.426;2024-03-22T08:40:53;10.60;;;4.97;;
74241;SDS011;62599;49.146;10.426;2024-03-22T08:43:18;9.53;;;5.57;;
74241;SDS011;62599;49.146;10.426;2024-03-22T08:45:44;10.63;;;5.57;;
74241;SDS011;62599;49.146;10.426;2024-03-22T08:48:09;11.00;;;5.20;;
74241;SDS011;62599;49.146;10.426;2024-03-22T08:50:34;8.27;;;4.43;;
74241;SDS011;62599;49.146;10.426;2024-03-22T08:52:59;7.60;;;4.70;;
74241;SDS011;62599;49.146;10.426;2024-03-22T08:55:28;8.40;;;4.43;;
74241;SDS011;62599;49.146;10.426;2024-03-22T08:57:53;8.10;;;3.77;;
74241;SDS011;62599;49.146;10.426;2024-03-22T09:00:18;8.67;;;4.30;;
74241;SDS011;62599;49.146;10.426;2024-03-22T09:02:43;8.77;;;4.10;;
74241;SDS011;62599;49.146;10.426;2024-03-22T09:05:08;8.50;;;3.73;;
74241;SDS011;62599;49.146;10.426;2024-03-22T09:07:34;8.20;;;3.43;;
74241;SDS011;62599;49.146;10.426;2024-03-22T09:09:59;7.67;;;4.10;;
74241;SDS011;62599;49.146;10.426;2024-03-22T09:12:24;7.43;;;4.03;;
74241;SDS011;62599;49.146;10.426;2024-03-22T09:14:49;7.37;;;3.57;;
74241;SDS011;62599;49.146;10.426;2024-03-22T09:17:15;8.57;;;4.53;;
74241;SDS011;62599;49.146;10.426;2024-03-22T09:19:40;10.77;;;4.20;;
74241;SDS011;62599;49.146;10.426;2024-03-22T09:22:06;7.88;;;3.00;;
74241;SDS011;62599;49.146;10.426;2024-03-22T09:24:31;8.87;;;4.13;;
74241;SDS011;62599;49.146;10.426;2024-03-22T09:26:56;8.87;;;4.00;;
74241;SDS011;62599;49.146;10.426;2024-03-22T09:29:21;5.23;;;3.20;;
74241;SDS011;62599;49.146;10.426;2024-03-22T09:31:47;7.67;;;4.00;;
74241;SDS011;62599;49.146;10.426;2024-03-22T09:34:12;5.53;;;3.40;;
74241;SDS011;62599;49.146;10.426;2024-03-22T09:36:37;6.28;;;3.78;;
74241;SDS011;62599;49.146;10.426;2024-03-22T09:39:03;8.65;;;3.90;;
74241;SDS011;62599;49.146;10.426;2024-03-22T09:41:32;6.75;;;3.58;;
74241;SDS011;62599;49.146;10.426;2024-03-22T09:43:58;12.05;;;3.92;;
74241;SDS011;62599;49.146;10.426;2024-03-22T09:46:23;6.85;;;3.17;;
74241;SDS011;62599;49.146;10.426;2024-03-22T09:48:49;5.35;;;3.05;;
74241;SDS011;62599;49.146;10.426;2024-03-22T09:51:17;5.07;;;3.03;;
74241;SDS011;62599;49.146;10.426;2024-03-22T09:53:46;4.00;;;2.65;;
74241;SDS011;62599;49.146;10.426;2024-03-22T09:56:14;7.45;;;3.40;;
74241;SDS011;62599;49.146;10.426;2024-03-22T09:58:40;5.32;;;3.03;;
74241;SDS011;62599;49.146;10.426;2024-03-22T10:01:05;8.13;;;3.78;;
74241;SDS011;62599;49.146;10.426;2024-03-22T10:03:30;3.70;;;2.55;;
74241;SDS011;62599;49.146;10.426;2024-03-22T10:05:56;3.77;;;2.30;;
74241;SDS011;62599;49.146;10.426;2024-03-22T10:08:21;4.50;;;2.53;;
74241;SDS011;62599;49.146;10.426;2024-03-22T10:10:46;4.43;;;2.83;;
74241;SDS011;62599;49.146;10.426;2024-03-22T10:13:12;6.38;;;2.55;;
74241;SDS011;62599;49.146;10.426;2024-03-22T10:15:37;6.83;;;3.07;;
74241;SDS011;62599;49.146;10.426;2024-03-22T10:18:02;5.00;;;2.60;;
74241;SDS011;62599;49.146;10.426;2024-03-22T10:20:28;8.75;;;2.80;;
74241;SDS011;62599;49.146;10.426;2024-03-22T10:23:00;4.73;;;2.40;;
74241;SDS011;62599;49.146;10.426;2024-03-22T10:25:26;3.38;;;2.60;;
74241;SDS011;62599;49.146;10.426;2024-03-22T10:27:53;5.43;;;3.10;;
74241;SDS011;62599;49.146;10.426;2024-03-22T10:30:18;4.47;;;2.25;;
74241;SDS011;62599;49.146;10.426;2024-03-22T10:32:43;4.90;;;2.20;;
74241;SDS011;62599;49.146;10.426;2024-03-22T10:35:11;4.45;;;2.60;;
74241;SDS011;62599;49.146;10.426;2024-03-22T10:37:36;6.05;;;2.67;;
74241;SDS011;62599;49.146;10.426;2024-03-22T10:40:02;6.70;;;2.43;;
74241;SDS011;62599;49.146;10.426;2024-03-22T10:42:33;4.45;;;2.58;;
74241;SDS011;62599;49.146;10.426;2024-03-22T10:44:58;3.60;;;2.03;;
74241;SDS011;62599;49.146;10.426;2024-03-22T10:47:24;4.97;;;2.40;;
74241;SDS011;62599;49.146;10.426;2024-03-22T10:49:51;5.40;;;2.45;;
74241;SDS011;62599;49.146;10.426;2024-03-22T10:52:18;3.72;;;2.55;;
74241;SDS011;62599;49.146;10.426;2024-03-22T10:54:43;3.60;;;2.38;;
74241;SDS011;62599;49.146;10.426;2024-03-22T10:57:11;4.85;;;2.58;;
74241;SDS011;62599;49.146;10.426;2024-03-22T10:59:37;7.15;;;2.28;;
74241;SDS011;62599;49.146;10.426;2024-03-22T11:02:03;3.72;;;2.10;;
74241;SDS011;62599;49.146;10.426;2024-03-22T11:04:29;3.15;;;2.25;;
74241;SDS011;62599;49.146;10.426;2024-03-22T11:06:56;6.78;;;2.20;;
74241;SDS011;62599;49.146;10.426;2024-03-22T11:09:22;4.38;;;2.17;;
74241;SDS011;62599;49.146;10.426;2024-03-22T11:11:48;7.18;;;2.95;;
74241;SDS011;62599;49.146;10.426;2024-03-22T11:14:13;4.57;;;2.25;;
74241;SDS011;62599;49.146;10.426;2024-03-22T11:16:38;7.63;;;2.97;;
74241;SDS011;62599;49.146;10.426;2024-03-22T11:19:07;5.13;;;3.15;;
74241;SDS011;62599;49.146;10.426;2024-03-22T11:21:33;9.10;;;3.28;;
74241;SDS011;62599;49.146;10.426;2024-03-22T11:24:00;5.43;;;3.17;;
74241;SDS011;62599;49.146;10.426;2024-03-22T11:26:25;5.03;;;3.13;;
74241;SDS011;62599;49.146;10.426;2024-03-22T11:28:50;7.07;;;2.73;;
74241;SDS011;62599;49.146;10.426;2024-03-22T11:31:16;4.43;;;2.80;;
74241;SDS011;62599;49.146;10.426;2024-03-22T11:33:41;6.05;;;3.45;;
74241;SDS011;62599;49.146;10.426;2024-03-22T11:36:07;5.88;;;2.35;;
74241;SDS011;62599;49.146;10.426;2024-03-22T11:38:32;5.88;;;3.22;;
74241;SDS011;62599;49.146;10.426;2024-03-22T11:40:58;5.77;;;3.13;;
74241;SDS011;62599;49.146;10.426;2024-03-22T11:43:24;6.28;;;2.80;;
74241;SDS011;62599;49.146;10.426;2024-03-22T11:45:50;4.75;;;2.90;;
74241;SDS011;62599;49.146;10.426;2024-03-22T11:48:15;6.27;;;3.30;;
74241;SDS011;62599;49.146;10.426;2024-03-22T11:50:41;5.55;;;2.70;;
74241;SDS011;62599;49.146;10.426;2024-03-22T11:53:06;6.60;;;2.63;;
74241;SDS011;62599;49.146;10.426;2024-03-22T11:55:32;7.47;;;2.47;;
74241;SDS011;62599;49.146;10.426;2024-03-22T11:57:57;4.27;;;2.27;;
74241;SDS011;62599;49.146;10.426;2024-03-22T12:00:22;4.07;;;2.35;;
74241;SDS011;62599;49.146;10.426;2024-03-22T12:02:50;8.45;;;2.40;;
74241;SDS011;62599;49.146;10.426;2024-03-22T12:05:15;2.72;;;1.67;;
74241;SDS011;62599;49.146;10.426;2024-03-22T12:07:42;3.25;;;1.58;;
74241;SDS011;62599;49.146;10.426;2024-03-22T12:10:07;2.53;;;1.70;;
74241;SDS011;62599;49.146;10.426;2024-03-22T12:12:32;4.40;;;2.25;;
74241;SDS011;62599;49.146;10.426;2024-03-22T12:14:58;2.90;;;1.93;;
74241;SDS011;62599;49.146;10.426;2024-03-22T12:17:23;3.80;;;2.03;;
74241;SDS011;62599;49.146;10.426;2024-03-22T12:19:48;4.57;;;1.90;;
74241;SDS011;62599;49.146;10.426;2024-03-22T12:22:13;3.13;;;2.33;;
74241;SDS011;62599;49.146;10.426;2024-03-22T12:24:38;5.27;;;2.20;;
74241;SDS011;62599;49.146;10.426;2024-03-22T12:27:04;4.63;;;2.03;;
74241;SDS011;62599;49.146;10.426;2024-03-22T12:29:31;3.78;;;2.22;;
74241;SDS011;62599;49.146;10.426;2024-03-22T12:31:57;2.45;;;2.00;;
74241;SDS011;62599;49.146;10.426;2024-03-22T12:34:22;4.50;;;2.30;;
74241;SDS011;62599;49.146;10.426;2024-03-22T12:36:47;2.83;;;1.03;;
74241;SDS011;62599;49.146;10.426;2024-03-22T12:39:12;3.17;;;1.97;;
74241;SDS011;62599;49.146;10.426;2024-03-22T12:41:37;6.13;;;2.10;;
74241;SDS011;62599;49.146;10.426;2024-03-22T12:44:03;5.67;;;2.47;;
74241;SDS011;62599;49.146;10.426;2024-03-22T12:46:28;4.50;;;2.08;;
74241;SDS011;62599;49.146;10.426;2024-03-22T12:48:54;5.20;;;2.33;;
74241;SDS011;62599;49.146;10.426;2024-03-22T12:51:19;3.47;;;2.00;;
74241;SDS011;62599;49.146;10.426;2024-03-22T12:53:45;3.78;;;2.05;;
74241;SDS011;62599;49.146;10.426;2024-03-22T12:56:11;4.90;;;2.10;;
74241;SDS011;62599;49.146;10.426;2024-03-22T12:58:36;4.78;;;2.40;;
74241;SDS011;62599;49.146;10.426;2024-03-22T13:01:01;3.30;;;1.53;;
74241;SDS011;62599;49.146;10.426;2024-03-22T13:03:30;2.75;;;1.52;;
74241;SDS011;62599;49.146;10.426;2024-03-22T13:05:58;2.63;;;1.77;;
74241;SDS011;62599;49.146;10.426;2024-03-22T13:08:23;3.08;;;1.75;;
74241;SDS011;62599;49.146;10.426;2024-03-22T13:10:51;4.40;;;2.80;;
74241;SDS011;62599;49.146;10.426;2024-03-22T13:13:17;3.10;;;2.03;;
74241;SDS011;62599;49.146;10.426;2024-03-22T13:15:43;3.55;;;1.45;;
74241;SDS011;62599;49.146;10.426;2024-03-22T13:18:08;3.57;;;1.60;;
74241;SDS011;62599;49.146;10.426;2024-03-22T13:20:34;3.38;;;1.40;;
74241;SDS011;62599;49.146;10.426;2024-03-22T13:23:00;3.10;;;1.05;;
74241;SDS011;62599;49.146;10.426;2024-03-22T13:25:26;5.80;;;1.55;;
74241;SDS011;62599;49.146;10.426;2024-03-22T13:27:51;3.33;;;1.40;;
74241;SDS011;62599;49.146;10.426;2024-03-22T13:30:16;2.53;;;1.30;;
74241;SDS011;62599;49.146;10.426;2024-03-22T13:32:42;2.00;;;1.03;;
74241;SDS011;62599;49.146;10.426;2024-03-22T13:35:07;2.47;;;1.53;;
74241;SDS011;62599;49.146;10.426;2024-03-22T13:37:33;2.05;;;1.27;;
74241;SDS011;62599;49.146;10.426;2024-03-22T13:39:58;3.28;;;1.02;;
74241;SDS011;62599;49.146;10.426;2024-03-22T13:42:24;1.80;;;1.00;;
74241;SDS011;62599;49.146;10.426;2024-03-22T13:44:49;3.28;;;1.48;;
74241;SDS011;62599;49.146;10.426;2024-03-22T13:47:14;2.70;;;1.20;;
74241;SDS011;62599;49.146;10.426;2024-03-22T13:49:40;2.43;;;1.07;;
74241;SDS011;62599;49.146;10.426;2024-03-22T13:52:08;2.60;;;1.50;;
74241;SDS011;62599;49.146;10.426;2024-03-22T13:54:34;3.05;;;1.50;;
74241;SDS011;62599;49.146;10.426;2024-03-22T13:56:59;1.83;;;1.30;;
74241;SDS011;62599;49.146;10.426;2024-03-22T13:59:25;3.45;;;1.30;;
74241;SDS011;62599;49.146;10.426;2024-03-22T14:01:50;2.35;;;1.85;;
74241;SDS011;62599;49.146;10.426;2024-03-22T14:04:16;2.70;;;1.50;;
74241;SDS011;62599;49.146;10.426;2024-03-22T14:06:41;2.50;;;1.20;;
74241;SDS011;62599;49.146;10.426;2024-03-22T14:09:09;2.40;;;2.20;;
74241;SDS011;62599;49.146;10.426;2024-03-22T14:11:35;1.98;;;1.25;;
74241;SDS011;62599;49.146;10.426;2024-03-22T14:14:00;2.53;;;1.25;;
74241;SDS011;62599;49.146;10.426;2024-03-22T14:16:26;3.77;;;0.80;;
74241;SDS011;62599;49.146;10.426;2024-03-22T14:18:51;2.43;;;1.40;;
74241;SDS011;62599;49.146;10.426;2024-03-22T14:21:17;2.75;;;1.20;;